Time;durP1;ratioP1;P1;durP2;ratioP2;P2;SDS_P1;SDS_P2;PMS_P1;PMS_P2;Temp;Humidity;BMP_temperature;BMP_pressure;BME280_temperature;BME280_humidity;BME280_pressure;Samples;Min_cycle;Max_cycle;Signal;HPM_P1;HPM_P2
2022/02/07 00:00:23;;;;;;;5.75;1.15;;;;;;;;;;510409;28;4011;-78
2022/02/07 00:00:46;;;;;;;6.68;1.35;;;;;;;;;;512990;28;1775;-78
2022/02/07 00:01:13;;;;;;;5.80;1.20;;;;;;;;;;513666;28;1800;-79
2022/02/07 00:01:36;;;;;;;5.85;1.05;;;;;;;;;;513622;28;2003;-78
2022/02/07 00:02:01;;;;;;;5.57;1.20;;;;;;;;;;514182;28;1742;-79
2022/02/07 00:02:17;;;;;;;6.00;1.50;;;;;;;;;;513900;28;2645;-78
2022/02/07 00:03:42;;;;;;;5.00;1.10;;;;;;;;;;516806;28;1128;-80
2022/02/07 00:04:00;;;;;;;7.15;1.30;;;;;;;;;;513850;28;895;-79
2022/02/07 00:04:20;;;;;;;8.32;1.33;;;;;;;;;;514102;28;895;-79
2022/02/07 00:04:38;;;;;;;6.75;1.35;;;;;;;;;;514522;28;931;-80
2022/02/07 00:04:55;;;;;;;7.43;1.50;;;;;;;;;;516461;28;745;-79
2022/02/07 00:05:10;;;;;;;6.85;1.42;;;;;;;;;;515149;28;1161;-79
2022/02/07 00:05:29;;;;;;;5.97;1.27;;;;;;;;;;515813;28;835;-78
2022/02/07 00:05:44;;;;;;;5.45;1.20;;;;;;;;;;514832;28;879;-78
2022/02/07 00:06:00;;;;;;;5.50;1.30;;;;;;;;;;514113;28;805;-78
2022/02/07 00:06:15;;;;;;;6.77;1.27;;;;;;;;;;514079;28;971;-78
2022/02/07 00:06:30;;;;;;;6.10;1.30;;;;;;;;;;513787;28;769;-78
2022/02/07 00:06:46;;;;;;;7.55;1.40;;;;;;;;;;513864;28;1406;-78
2022/02/07 00:07:02;;;;;;;10.80;1.50;;;;;;;;;;514713;28;898;-79
2022/02/07 00:07:19;;;;;;;8.20;1.42;;;;;;;;;;515709;28;1228;-79
2022/02/07 00:07:34;;;;;;;5.38;1.30;;;;;;;;;;516314;28;835;-79
2022/02/07 00:07:49;;;;;;;6.60;1.30;;;;;;;;;;516060;28;780;-78
2022/02/07 00:08:07;;;;;;;7.57;1.30;;;;;;;;;;516103;28;803;-80
2022/02/07 00:08:22;;;;;;;6.55;1.38;;;;;;;;;;515748;28;2119;-79
2022/02/07 00:08:37;;;;;;;7.15;1.40;;;;;;;;;;516370;28;1543;-78
2022/02/07 00:08:53;;;;;;;8.00;1.50;;;;;;;;;;514836;28;1189;-78
2022/02/07 00:09:08;;;;;;;7.40;1.53;;;;;;;;;;514118;28;899;-78
2022/02/07 00:09:23;;;;;;;7.07;1.38;;;;;;;;;;511764;29;955;-78
2022/02/07 00:09:39;;;;;;;7.17;1.27;;;;;;;;;;513116;28;887;-78
2022/02/07 00:09:54;;;;;;;7.77;1.30;;;;;;;;;;511802;29;1782;-78
2022/02/07 00:10:09;;;;;;;6.88;1.35;;;;;;;;;;511238;28;1923;-77
2022/02/07 00:10:26;;;;;;;6.27;1.50;;;;;;;;;;513202;28;851;-78
2022/02/07 00:10:41;;;;;;;6.47;1.55;;;;;;;;;;512438;28;1503;-78
2022/02/07 00:10:57;;;;;;;6.72;1.45;;;;;;;;;;512704;28;1109;-77
2022/02/07 00:11:13;;;;;;;6.35;1.30;;;;;;;;;;512228;29;986;-78
2022/02/07 00:11:29;;;;;;;9.10;1.48;;;;;;;;;;508329;29;1328;-77
2022/02/07 00:11:44;;;;;;;8.43;1.45;;;;;;;;;;510461;29;858;-79
2022/02/07 00:11:59;;;;;;;6.33;1.20;;;;;;;;;;510168;29;1183;-78
2022/02/07 00:12:16;;;;;;;7.23;1.20;;;;;;;;;;509941;29;940;-78
2022/02/07 00:12:32;;;;;;;6.82;1.30;;;;;;;;;;510475;29;1576;-78
2022/02/07 00:12:47;;;;;;;7.20;1.52;;;;;;;;;;512312;29;951;-78
2022/02/07 00:13:02;;;;;;;7.17;1.40;;;;;;;;;;512038;29;809;-78
2022/02/07 00:13:17;;;;;;;6.70;1.30;;;;;;;;;;512063;29;808;-78
2022/02/07 00:13:33;;;;;;;6.88;1.35;;;;;;;;;;512065;28;1670;-79
2022/02/07 00:13:48;;;;;;;7.37;1.47;;;;;;;;;;514411;28;959;-79
2022/02/07 00:14:03;;;;;;;7.87;1.57;;;;;;;;;;516053;28;926;-77
2022/02/07 00:14:19;;;;;;;7.60;1.42;;;;;;;;;;515947;28;1404;-78
2022/02/07 00:14:34;;;;;;;6.27;1.30;;;;;;;;;;514038;28;1206;-78
2022/02/07 00:14:49;;;;;;;5.10;1.20;;;;;;;;;;514106;28;1001;-78
2022/02/07 00:15:08;;;;;;;7.57;1.37;;;;;;;;;;513384;28;1275;-77
2022/02/07 00:15:23;;;;;;;7.75;1.40;;;;;;;;;;513777;28;797;-75
2022/02/07 00:15:38;;;;;;;5.73;1.30;;;;;;;;;;512948;28;1317;-75
2022/02/07 00:15:54;;;;;;;5.93;1.35;;;;;;;;;;513496;28;792;-75
2022/02/07 00:16:10;;;;;;;6.30;1.30;;;;;;;;;;513406;28;959;-78
2022/02/07 00:16:25;;;;;;;5.67;1.20;;;;;;;;;;512128;28;1363;-77
2022/02/07 00:16:42;;;;;;;7.30;1.40;;;;;;;;;;513699;28;701;-78
2022/02/07 00:16:57;;;;;;;9.02;1.70;;;;;;;;;;513616;28;820;-77
2022/02/07 00:17:13;;;;;;;7.37;1.60;;;;;;;;;;513670;28;844;-77
2022/02/07 00:17:28;;;;;;;6.20;1.50;;;;;;;;;;512144;28;1221;-77
2022/02/07 00:17:44;;;;;;;6.95;1.42;;;;;;;;;;513317;28;813;-76
2022/02/07 00:17:59;;;;;;;8.33;1.50;;;;;;;;;;511743;29;1155;-77
2022/02/07 00:18:16;;;;;;;7.32;1.40;;;;;;;;;;510765;29;1157;-77
2022/02/07 00:18:33;;;;;;;6.63;1.48;;;;;;;;;;510969;29;1634;-78
2022/02/07 00:18:48;;;;;;;7.53;1.60;;;;;;;;;;510469;28;1321;-78
2022/02/07 00:19:05;;;;;;;7.28;1.38;;;;;;;;;;507735;29;1238;-78
2022/02/07 00:19:25;;;;;;;6.65;1.25;;;;;;;;;;509716;29;793;-78
2022/02/07 00:19:40;;;;;;;7.22;1.38;;;;;;;;;;509442;29;915;-78
2022/02/07 00:19:58;;;;;;;6.13;1.40;;;;;;;;;;509463;29;764;-79
2022/02/07 00:20:20;;;;;;;5.95;1.42;;;;;;;;;;509334;29;860;-78
2022/02/07 00:20:36;;;;;;;8.23;1.60;;;;;;;;;;511955;28;844;-79
2022/02/07 00:20:52;;;;;;;6.03;1.52;;;;;;;;;;512092;28;1416;-79
2022/02/07 00:21:07;;;;;;;5.72;1.40;;;;;;;;;;513739;28;796;-79
2022/02/07 00:21:23;;;;;;;6.07;1.40;;;;;;;;;;511869;29;1191;-79
2022/02/07 00:21:38;;;;;;;5.82;1.30;;;;;;;;;;511973;29;1206;-79
2022/02/07 00:21:56;;;;;;;6.07;1.37;;;;;;;;;;510370;29;1192;-79
2022/02/07 00:22:11;;;;;;;8.60;1.55;;;;;;;;;;511243;29;797;-79
2022/02/07 00:22:26;;;;;;;8.68;1.55;;;;;;;;;;511453;29;1209;-78
2022/02/07 00:22:42;;;;;;;6.53;1.43;;;;;;;;;;512005;28;1199;-80
2022/02/07 00:22:58;;;;;;;5.13;1.33;;;;;;;;;;513673;28;1324;-79
2022/02/07 00:23:13;;;;;;;5.53;1.33;;;;;;;;;;513506;28;1371;-79
2022/02/07 00:23:28;;;;;;;6.30;1.50;;;;;;;;;;513359;28;752;-80
2022/02/07 00:23:44;;;;;;;5.60;1.40;;;;;;;;;;513035;28;1575;-80
2022/02/07 00:23:59;;;;;;;5.72;1.40;;;;;;;;;;513460;28;754;-79
2022/02/07 00:24:15;;;;;;;6.20;1.50;;;;;;;;;;513788;28;737;-80
2022/02/07 00:24:30;;;;;;;5.90;1.40;;;;;;;;;;514355;28;788;-79
2022/02/07 00:24:45;;;;;;;6.60;1.30;;;;;;;;;;516045;28;725;-80
2022/02/07 00:25:00;;;;;;;6.70;1.40;;;;;;;;;;515872;28;915;-78
2022/02/07 00:25:17;;;;;;;8.43;1.67;;;;;;;;;;515995;28;998;-80
2022/02/07 00:25:32;;;;;;;8.77;1.58;;;;;;;;;;513879;28;1499;-80
2022/02/07 00:25:48;;;;;;;6.25;1.52;;;;;;;;;;512832;28;1158;-79
2022/02/07 00:26:03;;;;;;;6.00;1.50;;;;;;;;;;513413;28;1158;-81
2022/02/07 00:26:18;;;;;;;5.57;1.30;;;;;;;;;;513919;28;938;-79
2022/02/07 00:26:34;;;;;;;5.57;1.37;;;;;;;;;;512048;29;1290;-80
2022/02/07 00:26:49;;;;;;;5.78;1.35;;;;;;;;;;511725;29;1197;-79
2022/02/07 00:27:04;;;;;;;7.20;1.50;;;;;;;;;;511655;29;1401;-80
2022/02/07 00:27:20;;;;;;;9.93;1.60;;;;;;;;;;511861;29;983;-79
2022/02/07 00:27:35;;;;;;;8.93;1.57;;;;;;;;;;511635;28;3040;-79
2022/02/07 00:27:51;;;;;;;7.50;1.40;;;;;;;;;;513919;28;951;-79
2022/02/07 00:28:06;;;;;;;8.30;1.43;;;;;;;;;;515387;28;844;-79
2022/02/07 00:28:22;;;;;;;6.20;1.40;;;;;;;;;;515825;28;737;-79
2022/02/07 00:28:37;;;;;;;6.03;1.40;;;;;;;;;;514604;28;1575;-79
2022/02/07 00:28:54;;;;;;;7.22;1.50;;;;;;;;;;515714;28;789;-78
2022/02/07 00:29:09;;;;;;;7.45;1.40;;;;;;;;;;515398;28;1394;-79
2022/02/07 00:29:24;;;;;;;6.47;1.30;;;;;;;;;;515547;28;753;-78
2022/02/07 00:29:40;;;;;;;5.17;1.20;;;;;;;;;;515307;28;1014;-78
2022/02/07 00:29:55;;;;;;;5.93;1.27;;;;;;;;;;514005;28;745;-79
2022/02/07 00:30:13;;;;;;;7.27;1.30;;;;;;;;;;511125;28;1907;-77
2022/02/07 00:30:28;;;;;;;7.10;1.40;;;;;;;;;;511590;29;1368;-78
2022/02/07 00:30:43;;;;;;;6.40;1.50;;;;;;;;;;512525;28;1500;-78
2022/02/07 00:31:00;;;;;;;6.73;1.40;;;;;;;;;;513675;28;768;-78
2022/02/07 00:31:15;;;;;;;7.63;1.30;;;;;;;;;;513623;28;1000;-78
2022/02/07 00:31:30;;;;;;;7.70;1.40;;;;;;;;;;513446;28;1203;-78
2022/02/07 00:31:46;;;;;;;7.20;1.57;;;;;;;;;;513222;28;1498;-80
2022/02/07 00:32:01;;;;;;;6.53;1.60;;;;;;;;;;513821;28;1431;-78
2022/02/07 00:32:16;;;;;;;7.60;1.45;;;;;;;;;;511938;28;1311;-78
2022/02/07 00:32:32;;;;;;;7.37;1.50;;;;;;;;;;511078;28;1120;-78
2022/02/07 00:32:48;;;;;;;5.27;1.40;;;;;;;;;;513603;28;954;-78
2022/02/07 00:33:04;;;;;;;5.60;1.35;;;;;;;;;;511309;28;836;-78
2022/02/07 00:33:19;;;;;;;6.53;1.43;;;;;;;;;;509344;28;1188;-78
2022/02/07 00:33:34;;;;;;;6.32;1.50;;;;;;;;;;512218;28;1425;-78
2022/02/07 00:33:49;;;;;;;7.47;1.50;;;;;;;;;;512171;28;1149;-78
2022/02/07 00:34:05;;;;;;;8.07;1.30;;;;;;;;;;514927;28;1177;-80
2022/02/07 00:34:20;;;;;;;7.20;1.25;;;;;;;;;;513527;28;1105;-79
2022/02/07 00:34:35;;;;;;;7.47;1.40;;;;;;;;;;513673;28;756;-79
2022/02/07 00:34:51;;;;;;;6.27;1.40;;;;;;;;;;515666;28;1052;-79
2022/02/07 00:35:09;;;;;;;6.82;1.55;;;;;;;;;;515298;28;851;-79
2022/02/07 00:35:25;;;;;;;7.05;1.40;;;;;;;;;;515858;28;807;-79
2022/02/07 00:35:40;;;;;;;7.70;1.63;;;;;;;;;;515291;28;799;-80
2022/02/07 00:35:56;;;;;;;7.43;1.80;;;;;;;;;;515610;28;888;-79
2022/02/07 00:36:14;;;;;;;4.97;1.50;;;;;;;;;;515927;28;717;-80
2022/02/07 00:36:31;;;;;;;5.53;1.40;;;;;;;;;;515649;28;804;-79
2022/02/07 00:36:47;;;;;;;5.65;1.40;;;;;;;;;;515958;28;839;-79
2022/02/07 00:37:02;;;;;;;6.43;1.40;;;;;;;;;;515863;28;1312;-79
2022/02/07 00:37:18;;;;;;;8.07;1.53;;;;;;;;;;515492;28;832;-79
2022/02/07 00:37:34;;;;;;;8.73;1.70;;;;;;;;;;515655;28;745;-80
2022/02/07 00:37:52;;;;;;;8.23;1.60;;;;;;;;;;516060;28;745;-80
2022/02/07 00:38:12;;;;;;;7.80;1.40;;;;;;;;;;515840;28;820;-78
2022/02/07 00:38:28;;;;;;;7.30;1.50;;;;;;;;;;513309;28;1292;-78
2022/02/07 00:38:46;;;;;;;6.43;1.50;;;;;;;;;;510752;29;1474;-79
2022/02/07 00:39:09;;;;;;;6.78;1.50;;;;;;;;;;509602;29;1254;-79
2022/02/07 00:39:31;;;;;;;8.00;1.40;;;;;;;;;;509675;29;911;-79
2022/02/07 00:40:01;;;;;;;6.82;1.30;;;;;;;;;;509609;29;875;-79
2022/02/07 00:40:40;;;;;;;8.02;1.40;;;;;;;;;;510072;29;875;-79
2022/02/07 00:41:42;;;;;;;6.68;1.40;;;;;;;;;;514117;28;647;-79
2022/02/07 00:42:04;;;;;;;7.82;1.55;;;;;;;;;;514008;28;812;-79
2022/02/07 00:42:28;;;;;;;7.65;1.40;;;;;;;;;;513750;28;852;-79
2022/02/07 00:42:54;;;;;;;8.68;1.50;;;;;;;;;;513229;28;815;-78
2022/02/07 00:43:33;;;;;;;7.78;1.60;;;;;;;;;;513596;28;796;-78
2022/02/07 00:43:54;;;;;;;6.13;1.33;;;;;;;;;;514408;28;1370;-77
2022/02/07 00:44:13;;;;;;;4.72;1.30;;;;;;;;;;516426;28;1455;-77
2022/02/07 00:44:29;;;;;;;6.63;1.52;;;;;;;;;;517542;28;804;-78
2022/02/07 00:44:46;;;;;;;5.60;1.42;;;;;;;;;;515749;28;1214;-79
2022/02/07 00:45:13;;;;;;;5.18;1.33;;;;;;;;;;515342;28;840;-79
2022/02/07 00:45:56;;;;;;;8.95;1.80;;;;;;;;;;513193;28;844;-79
2022/02/07 00:46:13;;;;;;;6.80;1.55;;;;;;;;;;511734;29;840;-77
2022/02/07 00:46:34;;;;;;;7.28;1.60;;;;;;;;;;513541;28;1408;-77
2022/02/07 00:47:08;;;;;;;6.88;1.55;;;;;;;;;;533813;27;20113;-81
2022/02/07 00:47:24;;;;;;;7.45;1.60;;;;;;;;;;532176;27;1167;-78
2022/02/07 00:47:39;;;;;;;8.47;1.87;;;;;;;;;;529694;28;1274;-79
2022/02/07 00:48:00;;;;;;;6.80;1.70;;;;;;;;;;527674;28;1355;-80
2022/02/07 00:48:16;;;;;;;7.05;1.52;;;;;;;;;;527541;28;728;-80
2022/02/07 00:48:31;;;;;;;8.63;1.73;;;;;;;;;;527129;28;1515;-80
2022/02/07 00:48:46;;;;;;;8.60;1.80;;;;;;;;;;527054;28;1264;-80
2022/02/07 00:49:02;;;;;;;7.93;1.65;;;;;;;;;;523541;28;1255;-80
2022/02/07 00:49:18;;;;;;;7.33;1.50;;;;;;;;;;525643;28;1332;-80
2022/02/07 00:49:33;;;;;;;6.95;1.58;;;;;;;;;;529601;28;1174;-81
2022/02/07 00:49:48;;;;;;;7.57;1.87;;;;;;;;;;528064;28;1171;-80
2022/02/07 00:50:04;;;;;;;7.40;1.77;;;;;;;;;;525460;28;1329;-82
2022/02/07 00:50:19;;;;;;;6.30;1.70;;;;;;;;;;524076;28;1181;-82
2022/02/07 00:50:36;;;;;;;6.10;1.65;;;;;;;;;;525538;28;1245;-81
2022/02/07 00:50:55;;;;;;;5.13;1.50;;;;;;;;;;525491;28;835;-80
2022/02/07 00:51:11;;;;;;;5.90;1.52;;;;;;;;;;523401;28;1470;-80
2022/02/07 00:51:26;;;;;;;6.40;1.60;;;;;;;;;;525905;28;1460;-79
2022/02/07 00:51:42;;;;;;;5.63;1.40;;;;;;;;;;525566;28;1159;-78
2022/02/07 00:51:57;;;;;;;5.78;1.50;;;;;;;;;;523085;28;1290;-78
2022/02/07 00:52:12;;;;;;;6.83;1.80;;;;;;;;;;523339;28;780;-78
2022/02/07 00:52:28;;;;;;;7.30;1.65;;;;;;;;;;523271;28;922;-78
2022/02/07 00:52:43;;;;;;;7.53;1.50;;;;;;;;;;525409;28;1298;-78
2022/02/07 00:52:59;;;;;;;8.00;1.50;;;;;;;;;;525639;28;946;-78
2022/02/07 00:53:14;;;;;;;8.97;1.73;;;;;;;;;;527013;28;839;-78
2022/02/07 00:53:33;;;;;;;8.38;1.70;;;;;;;;;;528845;28;1479;-77
2022/02/07 00:53:49;;;;;;;7.32;1.70;;;;;;;;;;525845;28;1270;-79
2022/02/07 00:54:04;;;;;;;7.27;1.40;;;;;;;;;;527917;28;811;-79
2022/02/07 00:54:19;;;;;;;7.88;1.58;;;;;;;;;;525440;28;1364;-79
2022/02/07 00:54:35;;;;;;;8.33;1.80;;;;;;;;;;525213;28;988;-79
2022/02/07 00:54:50;;;;;;;8.60;1.60;;;;;;;;;;527338;28;902;-80
2022/02/07 00:55:06;;;;;;;6.30;1.30;;;;;;;;;;527061;28;973;-79
2022/02/07 00:55:21;;;;;;;4.75;1.30;;;;;;;;;;525653;28;1261;-78
2022/02/07 00:55:37;;;;;;;6.00;1.60;;;;;;;;;;527350;28;763;-78
2022/02/07 00:55:53;;;;;;;5.78;1.52;;;;;;;;;;525002;28;1165;-80
2022/02/07 00:56:08;;;;;;;7.28;1.63;;;;;;;;;;525865;28;807;-79
2022/02/07 00:56:24;;;;;;;8.63;1.80;;;;;;;;;;525321;28;1251;-79
2022/02/07 00:56:40;;;;;;;7.15;1.50;;;;;;;;;;525504;28;764;-79
2022/02/07 00:56:55;;;;;;;7.10;1.50;;;;;;;;;;525542;28;779;-78
2022/02/07 00:57:10;;;;;;;7.93;1.60;;;;;;;;;;525902;28;787;-79
2022/02/07 00:57:26;;;;;;;7.93;1.60;;;;;;;;;;527285;28;739;-81
2022/02/07 00:57:41;;;;;;;7.47;1.60;;;;;;;;;;527945;28;715;-80
2022/02/07 00:57:56;;;;;;;7.80;1.67;;;;;;;;;;529740;27;1460;-79
2022/02/07 00:58:12;;;;;;;8.93;1.70;;;;;;;;;;529834;27;1320;-79
2022/02/07 00:58:28;;;;;;;7.38;1.70;;;;;;;;;;531166;27;1320;-77
2022/02/07 00:58:43;;;;;;;7.07;1.67;;;;;;;;;;530060;27;1450;-79
2022/02/07 00:58:59;;;;;;;7.83;1.60;;;;;;;;;;530677;27;1631;-78
2022/02/07 00:59:14;;;;;;;7.85;1.63;;;;;;;;;;527453;28;1406;-78
2022/02/07 00:59:29;;;;;;;7.77;1.60;;;;;;;;;;528612;28;1254;-77
2022/02/07 00:59:44;;;;;;;6.80;1.43;;;;;;;;;;529424;28;909;-78
2022/02/07 01:00:00;;;;;;;7.10;1.60;;;;;;;;;;529031;28;1157;-78
2022/02/07 01:00:16;;;;;;;6.87;1.60;;;;;;;;;;529436;28;747;-79
2022/02/07 01:00:32;;;;;;;7.90;1.70;;;;;;;;;;529779;28;974;-79
2022/02/07 01:00:47;;;;;;;8.50;1.80;;;;;;;;;;527495;28;1162;-80
2022/02/07 01:01:03;;;;;;;6.88;1.60;;;;;;;;;;526232;28;1161;-80
2022/02/07 01:01:18;;;;;;;7.87;1.70;;;;;;;;;;527920;28;945;-81
2022/02/07 01:01:33;;;;;;;8.27;1.77;;;;;;;;;;529170;28;965;-79
2022/02/07 01:01:49;;;;;;;7.05;1.60;;;;;;;;;;527407;28;1062;-79
2022/02/07 01:02:04;;;;;;;6.50;1.50;;;;;;;;;;527925;28;1115;-80
2022/02/07 01:02:19;;;;;;;6.87;1.40;;;;;;;;;;528050;28;1171;-79
2022/02/07 01:02:34;;;;;;;7.38;1.42;;;;;;;;;;526906;28;1428;-80
2022/02/07 01:02:50;;;;;;;6.57;1.50;;;;;;;;;;529728;28;1329;-81
2022/02/07 01:03:05;;;;;;;6.20;1.50;;;;;;;;;;528940;28;1352;-79
2022/02/07 01:03:22;;;;;;;6.43;1.60;;;;;;;;;;529793;28;1149;-80
2022/02/07 01:03:37;;;;;;;7.85;1.63;;;;;;;;;;528423;27;1424;-80
2022/02/07 01:03:53;;;;;;;9.13;1.85;;;;;;;;;;530673;27;763;-80
2022/02/07 01:04:09;;;;;;;8.10;1.85;;;;;;;;;;530824;27;1028;-81
2022/02/07 01:04:24;;;;;;;8.93;1.90;;;;;;;;;;530560;27;1101;-79
2022/02/07 01:04:39;;;;;;;9.37;2.00;;;;;;;;;;526549;27;1186;-79
2022/02/07 01:04:55;;;;;;;8.23;1.70;;;;;;;;;;529838;28;941;-80
2022/02/07 01:05:10;;;;;;;7.13;1.60;;;;;;;;;;527261;28;1505;-79
2022/02/07 01:05:27;;;;;;;7.27;1.70;;;;;;;;;;525593;28;1270;-79
2022/02/07 01:05:42;;;;;;;8.60;1.70;;;;;;;;;;525874;27;904;-79
2022/02/07 01:05:58;;;;;;;9.13;1.70;;;;;;;;;;530002;28;1150;-79
2022/02/07 01:06:13;;;;;;;8.60;1.70;;;;;;;;;;531007;27;1008;-78
2022/02/07 01:06:28;;;;;;;8.37;1.70;;;;;;;;;;529745;27;1099;-79
2022/02/07 01:06:44;;;;;;;7.90;1.70;;;;;;;;;;527795;28;1303;-80
2022/02/07 01:07:02;;;;;;;6.93;1.67;;;;;;;;;;528410;28;1957;-80
2022/02/07 01:07:17;;;;;;;5.68;1.58;;;;;;;;;;530177;28;1349;-81
2022/02/07 01:07:33;;;;;;;6.93;1.67;;;;;;;;;;527930;28;1348;-80
2022/02/07 01:07:50;;;;;;;6.63;1.70;;;;;;;;;;527088;28;909;-79
2022/02/07 01:08:07;;;;;;;7.18;1.80;;;;;;;;;;527986;28;716;-80
2022/02/07 01:08:32;;;;;;;7.53;1.70;;;;;;;;;;525397;28;1192;-80
2022/02/07 01:08:53;;;;;;;7.05;1.65;;;;;;;;;;527302;28;1254;-79
2022/02/07 01:09:19;;;;;;;;;;;;;;;;;;;;;
2022/02/07 01:09:38;;;;;;;7.38;1.60;;;;;;;;;;527540;28;1040;-79
2022/02/07 01:09:55;;;;;;;7.10;1.55;;;;;;;;;;524922;28;1393;-79
2022/02/07 01:10:11;;;;;;;9.07;1.83;;;;;;;;;;525601;28;1249;-78
2022/02/07 01:10:37;;;;;;;8.10;1.63;;;;;;;;;;527864;28;834;-80
2022/02/07 01:11:43;;;;;;;9.60;1.77;;;;;;;;;;527695;28;747;-79
2022/02/07 01:11:58;;;;;;;8.50;1.63;;;;;;;;;;525470;28;1119;-80
2022/02/07 01:13:10;;;;;;;7.10;1.50;;;;;;;;;;531800;27;1793;-80
2022/02/07 01:13:17;;;;;;;6.50;1.35;;;;;;;;;;527482;28;1019;-79
2022/02/07 01:14:10;;;;;;;7.30;1.58;;;;;;;;;;528024;28;1812;-79
2022/02/07 01:15:05;;;;;;;7.28;1.70;;;;;;;;;;527424;28;668;-80
2022/02/07 01:16:38;;;;;;;6.83;1.60;;;;;;;;;;529469;27;890;-79
2022/02/07 01:17:27;;;;;;;6.47;1.63;;;;;;;;;;531581;27;1244;-80
2022/02/07 08:36:16;;;;;;;12.30;2.50;;;;;;;;;;509703;28;1609;-72
2022/02/07 08:36:32;;;;;;;11.50;2.47;;;;;;;;;;507874;29;1130;-72
2022/02/07 08:36:47;;;;;;;11.88;2.42;;;;;;;;;;506846;29;1123;-71
2022/02/07 08:37:03;;;;;;;13.53;2.50;;;;;;;;;;505960;29;1551;-73
2022/02/07 08:37:18;;;;;;;13.82;2.38;;;;;;;;;;505921;29;1222;-73
2022/02/07 08:37:34;;;;;;;13.17;2.20;;;;;;;;;;505864;29;746;-73
2022/02/07 08:37:49;;;;;;;14.03;2.37;;;;;;;;;;506026;29;1258;-73
2022/02/07 08:38:04;;;;;;;13.02;2.80;;;;;;;;;;507304;29;924;-73
2022/02/07 08:38:20;;;;;;;13.27;2.80;;;;;;;;;;507289;29;1267;-73
2022/02/07 08:38:35;;;;;;;14.77;2.58;;;;;;;;;;507841;29;1288;-72
2022/02/07 08:38:51;;;;;;;15.07;2.70;;;;;;;;;;508162;29;872;-73
2022/02/07 08:39:07;;;;;;;13.57;2.70;;;;;;;;;;506761;29;1455;-72
2022/02/07 08:39:22;;;;;;;10.95;2.47;;;;;;;;;;507262;29;943;-73
2022/02/07 08:39:38;;;;;;;10.77;2.60;;;;;;;;;;506285;29;1044;-73
2022/02/07 08:39:54;;;;;;;11.35;2.70;;;;;;;;;;508204;29;904;-73
2022/02/07 08:40:09;;;;;;;15.93;2.60;;;;;;;;;;508100;29;1223;-72
2022/02/07 08:40:26;;;;;;;15.93;2.53;;;;;;;;;;509221;29;1026;-73
2022/02/07 08:40:42;;;;;;;10.73;2.20;;;;;;;;;;509119;29;1743;-72
2022/02/07 08:40:57;;;;;;;12.60;2.30;;;;;;;;;;508058;29;1314;-73
2022/02/07 08:41:13;;;;;;;13.77;2.40;;;;;;;;;;509101;29;1502;-73
2022/02/07 08:41:28;;;;;;;12.57;2.30;;;;;;;;;;509683;29;1170;-73
2022/02/07 08:41:44;;;;;;;11.83;2.33;;;;;;;;;;509917;29;765;-73
2022/02/07 08:41:59;;;;;;;11.57;2.30;;;;;;;;;;505222;29;2438;-72
2022/02/07 08:42:15;;;;;;;11.54;2.37;;;;;;;;;;168682;29;10001194;-72
2022/02/07 08:42:30;;;;;;;10.90;2.37;;;;;;;;;;506565;29;1370;-72
2022/02/07 08:42:45;;;;;;;10.37;2.20;;;;;;;;;;506365;29;1088;-73
2022/02/07 08:43:01;;;;;;;11.98;2.35;;;;;;;;;;508172;29;1398;-73
2022/02/07 08:43:16;;;;;;;14.53;2.30;;;;;;;;;;507663;29;1397;-73
2022/02/07 08:43:32;;;;;;;13.65;2.50;;;;;;;;;;510120;29;1394;-73
2022/02/07 08:43:47;;;;;;;11.83;2.40;;;;;;;;;;507374;29;1339;-74
2022/02/07 08:44:03;;;;;;;11.47;2.20;;;;;;;;;;506449;29;1596;-73
2022/02/07 08:44:18;;;;;;;10.15;2.22;;;;;;;;;;505442;29;1371;-73
2022/02/07 08:44:33;;;;;;;10.00;2.07;;;;;;;;;;504142;29;1288;-73
2022/02/07 08:44:48;;;;;;;10.00;2.10;;;;;;;;;;501925;29;1451;-73
2022/02/07 08:45:05;;;;;;;11.25;2.47;;;;;;;;;;505613;29;1472;-73
2022/02/07 08:45:21;;;;;;;14.13;2.70;;;;;;;;;;503794;29;1472;-73
2022/02/07 08:45:37;;;;;;;12.45;2.28;;;;;;;;;;504213;29;1388;-73
2022/02/07 08:45:53;;;;;;;12.57;2.10;;;;;;;;;;502210;29;1051;-73
2022/02/07 08:46:08;;;;;;;11.80;2.20;;;;;;;;;;501964;29;1082;-73
2022/02/07 08:46:24;;;;;;;11.48;2.45;;;;;;;;;;502316;29;1078;-73
2022/02/07 08:46:39;;;;;;;12.87;2.50;;;;;;;;;;506719;29;1392;-73
2022/02/07 08:46:55;;;;;;;9.73;2.15;;;;;;;;;;508334;29;1405;-73
2022/02/07 08:47:11;;;;;;;10.65;2.30;;;;;;;;;;508972;29;1919;-73
2022/02/07 08:47:26;;;;;;;11.77;2.30;;;;;;;;;;509645;29;1412;-73
2022/02/07 08:47:42;;;;;;;11.13;2.10;;;;;;;;;;509257;29;1409;-73
2022/02/07 08:47:58;;;;;;;11.55;2.22;;;;;;;;;;508931;29;1649;-73
2022/02/07 08:48:14;;;;;;;11.18;2.33;;;;;;;;;;510118;29;1290;-73
2022/02/07 08:48:29;;;;;;;12.00;2.30;;;;;;;;;;509966;29;1432;-73
2022/02/07 08:48:44;;;;;;;12.32;2.45;;;;;;;;;;509101;29;1515;-73
2022/02/07 08:49:00;;;;;;;14.10;2.60;;;;;;;;;;508972;29;1357;-73
2022/02/07 08:49:15;;;;;;;16.33;2.50;;;;;;;;;;510237;29;1654;-73
2022/02/07 08:49:30;;;;;;;13.80;2.47;;;;;;;;;;507869;29;1278;-73
2022/02/07 08:49:46;;;;;;;11.27;2.43;;;;;;;;;;508381;29;1498;-73
2022/02/07 08:50:03;;;;;;;11.63;2.50;;;;;;;;;;507870;29;1386;-73
2022/02/07 08:50:18;;;;;;;13.32;2.50;;;;;;;;;;507738;29;1142;-73
2022/02/07 08:50:34;;;;;;;13.57;2.40;;;;;;;;;;511047;29;768;-73
2022/02/07 08:50:52;;;;;;;12.45;2.35;;;;;;;;;;509330;29;1217;-73
2022/02/07 08:51:07;;;;;;;12.57;2.60;;;;;;;;;;509522;29;907;-73
2022/02/07 08:51:23;;;;;;;12.07;2.60;;;;;;;;;;509271;29;781;-73
2022/02/07 08:51:38;;;;;;;13.00;2.40;;;;;;;;;;507081;29;1302;-73
2022/02/07 08:51:53;;;;;;;14.80;2.63;;;;;;;;;;505566;29;1253;-73
2022/02/07 08:52:09;;;;;;;13.50;2.50;;;;;;;;;;505516;29;757;-73
2022/02/07 08:52:25;;;;;;;13.20;2.60;;;;;;;;;;504314;29;1474;-73
2022/02/07 08:52:44;;;;;;;13.75;2.83;;;;;;;;;;506750;29;1415;-73
2022/02/07 08:53:01;;;;;;;12.70;2.42;;;;;;;;;;505177;29;1294;-73
2022/02/07 08:53:16;;;;;;;12.25;2.47;;;;;;;;;;506200;29;1449;-73
2022/02/07 08:53:38;;;;;;;12.87;2.50;;;;;;;;;;505952;29;1354;-73
2022/02/07 08:53:53;;;;;;;13.65;2.45;;;;;;;;;;505600;29;1224;-73
2022/02/07 08:54:09;;;;;;;12.83;2.40;;;;;;;;;;506558;29;1438;-73
2022/02/07 08:54:27;;;;;;;12.95;2.33;;;;;;;;;;506618;29;1414;-73
2022/02/07 08:54:43;;;;;;;11.23;2.30;;;;;;;;;;508011;29;1371;-73
2022/02/07 08:54:59;;;;;;;11.20;2.50;;;;;;;;;;508827;29;1283;-73
2022/02/07 08:55:23;;;;;;;11.32;2.38;;;;;;;;;;507934;29;1261;-73
2022/02/07 08:55:42;;;;;;;9.60;2.20;;;;;;;;;;506554;29;1276;-73
2022/02/07 08:55:57;;;;;;;11.57;2.45;;;;;;;;;;507780;29;1484;-73
2022/02/07 08:56:13;;;;;;;12.90;2.60;;;;;;;;;;506955;29;1408;-73
2022/02/07 08:56:40;;;;;;;12.00;2.17;;;;;;;;;;507617;29;1434;-73
2022/02/07 08:57:02;;;;;;;11.18;2.40;;;;;;;;;;506684;29;1331;-73
2022/02/07 08:57:28;;;;;;;12.35;2.20;;;;;;;;;;506782;29;1299;-73
2022/02/07 08:57:46;;;;;;;14.23;2.30;;;;;;;;;;509116;29;1290;-73
2022/02/07 08:58:08;;;;;;;13.30;2.28;;;;;;;;;;507779;29;1549;-73
2022/02/07 08:58:25;;;;;;;13.95;2.42;;;;;;;;;;506746;29;1464;-73
2022/02/07 08:58:45;;;;;;;12.80;2.33;;;;;;;;;;507536;29;1364;-73
2022/02/07 08:59:00;;;;;;;13.00;2.55;;;;;;;;;;507342;29;1292;-73
2022/02/07 08:59:15;;;;;;;15.07;2.57;;;;;;;;;;507128;29;1327;-73
2022/02/07 08:59:39;;;;;;;13.70;2.30;;;;;;;;;;507747;29;1359;-73
2022/02/07 09:00:17;;;;;;;13.67;2.60;;;;;;;;;;506239;29;1482;-73
2022/02/07 09:01:39;;;;;;;12.18;2.40;;;;;;;;;;507700;29;1154;-72
2022/02/07 09:02:12;;;;;;;13.68;2.50;;;;;;;;;;509680;29;1275;-73
2022/02/07 09:04:42;;;;;;;13.13;2.28;;;;;;;;;;497138;29;1451;-73
2022/02/07 09:04:56;;;;;;;15.70;2.63;;;;;;;;;;503536;29;1015;-73
2022/02/07 09:05:24;;;;;;;13.63;2.70;;;;;;;;;;507758;29;1295;-73
2022/02/07 09:05:55;;;;;;;15.20;2.70;;;;;;;;;;506570;29;1538;-73
2022/02/07 09:06:52;;;;;;;14.43;2.30;;;;;;;;;;508080;29;1002;-73
2022/02/07 09:07:16;;;;;;;12.60;2.60;;;;;;;;;;507526;29;1457;-73
2022/02/07 09:07:35;;;;;;;12.68;2.60;;;;;;;;;;508097;29;868;-73
2022/02/07 09:08:06;;;;;;;13.80;2.80;;;;;;;;;;509146;29;851;-73
2022/02/07 09:08:26;;;;;;;12.00;2.63;;;;;;;;;;507272;29;1008;-73
2022/02/07 09:09:16;;;;;;;11.80;2.50;;;;;;;;;;508192;29;807;-73
2022/02/07 09:09:32;;;;;;;14.07;2.55;;;;;;;;;;509959;29;1269;-73
2022/02/07 09:09:47;;;;;;;13.23;2.60;;;;;;;;;;509574;29;746;-73
2022/02/07 09:10:04;;;;;;;11.02;2.35;;;;;;;;;;509159;29;921;-73
2022/02/07 09:10:19;;;;;;;10.02;2.50;;;;;;;;;;507576;29;1228;-73
2022/02/07 09:10:35;;;;;;;14.23;2.67;;;;;;;;;;507681;29;1222;-73
2022/02/07 09:10:51;;;;;;;16.27;2.70;;;;;;;;;;508579;29;991;-73
2022/02/07 09:11:06;;;;;;;16.13;2.80;;;;;;;;;;507881;29;1167;-73
2022/02/07 09:11:22;;;;;;;15.68;2.80;;;;;;;;;;507352;29;801;-73
2022/02/07 09:11:38;;;;;;;14.23;2.93;;;;;;;;;;508464;29;1664;-73
2022/02/07 09:11:54;;;;;;;14.27;2.83;;;;;;;;;;509835;29;871;-73
2022/02/07 09:12:10;;;;;;;15.50;3.10;;;;;;;;;;510003;29;586;-73
2022/02/07 09:12:26;;;;;;;13.90;2.92;;;;;;;;;;509220;29;1355;-73
2022/02/07 09:12:44;;;;;;;13.50;2.77;;;;;;;;;;507804;29;702;-77
2022/02/07 09:12:59;;;;;;;13.20;2.70;;;;;;;;;;505602;29;1385;-72
2022/02/07 09:13:16;;;;;;;14.57;2.53;;;;;;;;;;503650;29;1176;-73
2022/02/07 09:13:32;;;;;;;15.20;2.67;;;;;;;;;;503799;29;1381;-73
2022/02/07 09:13:48;;;;;;;16.20;3.00;;;;;;;;;;504148;29;1357;-73
2022/02/07 09:14:10;;;;;;;15.50;3.03;;;;;;;;;;503813;29;1353;-72
2022/02/07 09:14:26;;;;;;;15.68;2.70;;;;;;;;;;503942;29;793;-72
2022/02/07 09:14:56;;;;;;;14.52;2.30;;;;;;;;;;503008;29;806;-72
2022/02/07 09:15:38;;;;;;;13.18;2.50;;;;;;;;;;501438;29;728;-73